createdAt,value
2023-03-16T00:02:43.597Z,0.84
2023-03-16T00:07:43.320Z,0.74
2023-03-16T00:12:44.013Z,0.57
2023-03-16T00:17:48.604Z,0.71
2023-03-16T00:22:47.435Z,0.62
2023-03-16T00:27:46.297Z,1.02
2023-03-16T00:32:45.179Z,0.80
2023-03-16T00:37:44.376Z,0.38
2023-03-16T00:42:44.715Z,0.94
2023-03-16T00:47:43.512Z,1.01
2023-03-16T00:52:43.057Z,0.74
2023-03-16T00:57:42.126Z,0.62
2023-03-16T01:02:41.423Z,0.34
2023-03-16T01:07:41.445Z,0.67
2023-03-16T01:12:40.179Z,0.45
2023-03-16T01:17:39.221Z,0.59
2023-03-16T01:22:37.968Z,0.59
2023-03-16T01:27:36.971Z,0.33
2023-03-16T01:32:35.930Z,0.45
2023-03-16T01:37:35.207Z,0.17
2023-03-16T01:43:02.819Z,0.47
2023-03-16T01:48:05.370Z,0.62
2023-03-16T01:53:04.561Z,0.07
2023-03-16T01:58:04.095Z,0.44
2023-03-16T02:03:13.920Z,0.23
2023-03-16T02:08:23.113Z,0.05
2023-03-16T02:13:26.731Z,0.09
2023-03-16T02:18:26.698Z,0.10
2023-03-16T02:23:26.768Z,0.20
2023-03-16T02:28:30.110Z,0.20
2023-03-16T02:33:31.888Z,-0.02
2023-03-16T02:38:31.692Z,0.10
2023-03-16T02:43:35.077Z,-0.05
2023-03-16T02:48:46.833Z,0.02
2023-03-16T02:53:45.883Z,0.01
2023-03-16T02:58:46.888Z,0.24
2023-03-16T03:03:50.090Z,0.03
2023-03-16T03:08:49.068Z,0.38
2023-03-16T03:13:48.109Z,0.35
2023-03-16T03:18:52.883Z,0.33
2023-03-16T03:23:52.761Z,0.18
2023-03-16T03:28:52.811Z,0.23
2023-03-16T03:33:53.713Z,0.40
2023-03-16T03:38:54.899Z,0.54
2023-03-16T03:43:54.345Z,0.13
2023-03-16T03:48:53.241Z,0.45
2023-03-16T03:53:52.090Z,0.39
2023-03-16T03:59:09.799Z,0.06
2023-03-16T04:04:46.875Z,0.70
2023-03-16T04:09:46.796Z,0.45
2023-03-16T04:14:58.684Z,0.57
2023-03-16T04:20:02.386Z,0.47
2023-03-16T04:25:04.141Z,0.17
2023-03-16T04:30:13.949Z,0.31
2023-03-16T04:35:18.600Z,0.16
2023-03-16T04:40:22.138Z,0.15
2023-03-16T04:45:28.940Z,0.25
2023-03-16T04:50:29.603Z,-0.34
2023-03-16T04:55:28.770Z,-0.23
2023-03-16T05:00:29.352Z,-0.20
2023-03-16T05:05:35.356Z,0.09
2023-03-16T05:10:35.289Z,-0.51
2023-03-16T05:15:34.714Z,-0.10
2023-03-16T05:21:03.226Z,-0.28
2023-03-16T05:26:13.589Z,6.31
2023-03-16T05:31:13.394Z,7.54
2023-03-16T05:36:20.469Z,9.18
2023-03-16T05:41:23.887Z,9.09
2023-03-16T05:46:32.054Z,8.99
2023-03-16T05:51:33.142Z,8.79
2023-03-16T05:56:34.150Z,8.38
2023-03-16T06:01:36.222Z,6.86
2023-03-16T06:06:36.645Z,2.85
2023-03-16T06:11:51.605Z,1.78
2023-03-16T06:16:51.980Z,1.20
2023-03-16T06:21:51.848Z,1.25
2023-03-16T06:26:50.903Z,1.02
2023-03-16T06:31:52.882Z,1.30
2023-03-16T06:36:53.091Z,0.63
2023-03-16T06:41:52.330Z,1.14
2023-03-16T06:46:52.564Z,1.05
2023-03-16T06:51:54.230Z,1.14
2023-03-16T06:56:55.808Z,1.32
2023-03-16T07:01:55.221Z,1.25
2023-03-16T07:06:54.352Z,0.73
2023-03-16T07:11:53.830Z,1.65
2023-03-16T07:16:53.266Z,1.99
2023-03-16T07:21:54.415Z,1.64
2023-03-16T07:26:54.710Z,1.87
2023-03-16T07:31:59.448Z,2.36
2023-03-16T07:37:08.373Z,2.40
2023-03-16T07:42:08.388Z,2.21
2023-03-16T07:47:20.177Z,3.06
2023-03-16T07:52:19.364Z,3.36
2023-03-16T07:57:19.611Z,3.66
2023-03-16T08:02:21.046Z,3.76
2023-03-16T08:07:20.945Z,3.84
2023-03-16T08:12:25.289Z,3.36
2023-03-16T08:17:24.183Z,3.67
2023-03-16T08:22:24.395Z,4.04
2023-03-16T08:27:23.846Z,4.23
2023-03-16T08:32:28.964Z,4.65
2023-03-16T08:37:28.772Z,4.48
2023-03-16T08:42:30.044Z,4.75
2023-03-16T08:47:33.222Z,5.05
2023-03-16T08:52:33.867Z,5.45
2023-03-16T08:57:33.958Z,5.71
2023-03-16T09:02:33.348Z,5.63
2023-03-16T09:07:35.662Z,5.82
2023-03-16T09:12:38.330Z,5.59
2023-03-16T09:17:37.195Z,5.71
2023-03-16T09:22:37.953Z,5.70
2023-03-16T09:27:37.409Z,5.95
2023-03-16T09:32:37.568Z,6.41
2023-03-16T09:37:45.031Z,6.59
2023-03-16T09:43:00.524Z,6.24
2023-03-16T09:48:03.723Z,6.65
2023-03-16T09:53:24.914Z,6.92
2023-03-16T09:58:23.994Z,7.09
2023-03-16T10:03:57.637Z,7.14
2023-03-16T10:09:15.406Z,7.49
2023-03-16T10:14:33.010Z,6.85
2023-03-16T10:20:09.242Z,7.43
2023-03-16T10:25:21.861Z,7.56
2023-03-16T10:30:32.156Z,7.95
2023-03-16T10:35:49.175Z,7.91
2023-03-16T10:40:47.961Z,8.17
2023-03-16T10:45:47.295Z,8.27
2023-03-16T10:50:57.232Z,8.72
2023-03-16T10:56:02.265Z,8.68
2023-03-16T11:01:01.694Z,8.63
2023-03-16T11:06:07.147Z,8.88
2023-03-16T11:11:31.127Z,8.18
2023-03-16T11:16:55.066Z,8.87
2023-03-16T11:22:01.444Z,8.56
2023-03-16T11:27:04.689Z,8.60
2023-03-16T11:32:12.323Z,8.90
2023-03-16T11:37:13.251Z,8.26
2023-03-16T11:42:43.526Z,8.75
2023-03-16T11:47:54.297Z,9.18
2023-03-16T11:53:04.076Z,9.52
2023-03-16T11:58:02.822Z,9.19
2023-03-16T12:03:22.981Z,9.21
2023-03-16T12:08:29.227Z,9.01
2023-03-16T12:14:06.546Z,9.48
2023-03-16T12:19:13.136Z,9.20
2023-03-16T12:24:16.867Z,8.72
2023-03-16T12:29:42.821Z,9.40
2023-03-16T12:34:51.630Z,9.69
2023-03-16T12:40:12.233Z,9.63
2023-03-16T12:45:48.292Z,9.89
2023-03-16T12:50:57.606Z,9.83
2023-03-16T12:56:08.803Z,10.16
2023-03-16T13:01:10.009Z,9.90
2023-03-16T13:06:18.168Z,9.79
2023-03-16T13:11:17.713Z,9.22
2023-03-16T13:16:33.305Z,9.44
2023-03-16T13:21:41.404Z,9.66
2023-03-16T13:26:49.496Z,9.34
2023-03-16T13:31:49.091Z,9.56
2023-03-16T13:36:53.312Z,9.89
2023-03-16T13:42:14.410Z,9.99
2023-03-16T13:47:19.998Z,9.74
2023-03-16T13:52:30.075Z,9.70
2023-03-16T13:57:32.435Z,9.74
2023-03-16T14:02:31.731Z,9.76
2023-03-16T14:07:38.810Z,9.27
2023-03-16T14:12:38.165Z,9.28
2023-03-16T14:17:37.529Z,9.28
2023-03-16T14:22:38.570Z,9.45
2023-03-16T14:27:40.709Z,9.54
2023-03-16T14:32:40.053Z,9.40
2023-03-16T14:37:38.932Z,9.31
2023-03-16T14:42:40.286Z,9.39
2023-03-16T14:47:43.268Z,8.97
2023-03-16T14:52:42.385Z,9.27
2023-03-16T14:57:42.737Z,9.11
2023-03-16T15:02:44.743Z,9.05
2023-03-16T15:07:45.608Z,9.16
2023-03-16T15:12:50.720Z,8.80
2023-03-16T15:17:52.224Z,8.72
2023-03-16T15:22:53.008Z,8.72
2023-03-16T15:27:54.478Z,8.85
2023-03-16T15:32:53.276Z,8.43
2023-03-16T15:37:52.463Z,8.59
2023-03-16T15:42:51.731Z,8.38
2023-03-16T15:47:52.324Z,8.39
2023-03-16T15:52:59.442Z,8.14
2023-03-16T15:58:01.066Z,8.13
2023-03-16T16:03:01.430Z,8.09
2023-03-16T16:08:00.633Z,8.04
2023-03-16T16:13:00.231Z,7.75
2023-03-16T16:18:21.803Z,7.64
2023-03-16T16:23:19.289Z,7.51
2023-03-16T16:28:25.128Z,7.33
2023-03-16T16:33:44.312Z,7.21
2023-03-16T16:38:43.739Z,7.22
2023-03-16T16:43:47.804Z,7.24
2023-03-16T16:48:55.087Z,6.92
2023-03-16T16:53:56.979Z,7.00
2023-03-16T16:58:57.291Z,6.92
2023-03-16T17:03:56.617Z,6.85
2023-03-16T17:08:56.117Z,6.70
2023-03-16T17:13:57.163Z,6.52
2023-03-16T17:18:56.001Z,6.44
2023-03-16T17:23:55.232Z,6.35
2023-03-16T17:28:59.658Z,6.35
2023-03-16T17:33:58.559Z,6.30
2023-03-16T17:38:58.117Z,6.17
2023-03-16T17:44:02.727Z,6.33
2023-03-16T17:49:02.383Z,6.02
2023-03-16T17:54:01.480Z,5.97
2023-03-16T17:59:05.588Z,6.02
2023-03-16T18:04:15.980Z,5.90
2023-03-16T18:09:16.137Z,5.62
2023-03-16T18:14:27.090Z,5.72
2023-03-16T18:19:26.233Z,5.74
2023-03-16T18:24:26.861Z,5.88
2023-03-16T18:29:26.253Z,5.79
2023-03-16T18:34:32.538Z,5.67
2023-03-16T18:39:32.004Z,5.87
2023-03-16T18:44:31.922Z,5.65
2023-03-16T18:49:33.830Z,5.75
2023-03-16T18:54:38.302Z,5.81
2023-03-16T18:59:37.342Z,5.87
2023-03-16T19:04:36.221Z,5.78
2023-03-16T19:09:35.911Z,5.73
2023-03-16T19:14:35.359Z,5.66
2023-03-16T19:19:34.089Z,5.63
2023-03-16T19:24:51.510Z,5.65
2023-03-16T19:29:52.224Z,5.58
2023-03-16T19:34:51.280Z,5.54
2023-03-16T19:39:50.180Z,5.58
2023-03-16T19:44:50.698Z,5.39
2023-03-16T19:49:49.575Z,5.44
2023-03-16T19:54:48.555Z,5.22
2023-03-16T19:59:54.655Z,5.12
2023-03-16T20:04:54.814Z,5.17
2023-03-16T20:09:53.945Z,5.22
2023-03-16T20:14:53.793Z,5.12
2023-03-16T20:19:53.219Z,5.10
2023-03-16T20:24:54.384Z,5.12
2023-03-16T20:29:53.263Z,5.10
2023-03-16T20:34:53.676Z,4.95
2023-03-16T20:39:54.068Z,5.22
2023-03-16T20:44:53.086Z,5.27
2023-03-16T20:49:52.920Z,5.46
2023-03-16T20:54:52.578Z,5.16
2023-03-16T20:59:54.619Z,5.24
2023-03-16T21:04:58.010Z,5.23
2023-03-16T21:09:56.970Z,5.12
2023-03-16T21:14:56.212Z,4.98
2023-03-16T21:19:55.208Z,5.00
2023-03-16T21:24:55.358Z,7.66
2023-03-16T21:29:58.296Z,7.80
2023-03-16T21:34:57.725Z,6.35
2023-03-16T21:39:56.530Z,5.86
2023-03-16T21:44:55.330Z,5.45
2023-03-16T21:49:54.640Z,5.25
2023-03-16T21:54:54.297Z,5.07
2023-03-16T21:59:53.004Z,4.82
2023-03-16T22:04:52.361Z,5.21
2023-03-16T22:09:51.315Z,5.08
2023-03-16T22:14:50.119Z,4.88
2023-03-16T22:19:49.139Z,5.07
2023-03-16T22:24:48.172Z,5.01
2023-03-16T22:29:51.936Z,4.95
2023-03-16T22:34:53.688Z,5.11
2023-03-16T22:39:53.015Z,4.83
2023-03-16T22:44:51.823Z,5.08
2023-03-16T22:49:50.618Z,4.84
2023-03-16T22:54:49.505Z,5.04
2023-03-16T22:59:49.692Z,5.06
2023-03-16T23:04:48.440Z,4.80
2023-03-16T23:09:48.583Z,5.18
2023-03-16T23:14:47.767Z,5.10
2023-03-16T23:19:48.211Z,5.09
2023-03-16T23:24:47.342Z,5.15
2023-03-16T23:29:46.756Z,5.30
2023-03-16T23:34:46.059Z,5.34
2023-03-16T23:39:44.821Z,5.11
2023-03-16T23:44:44.019Z,5.23
2023-03-16T23:49:43.024Z,5.09
2023-03-16T23:54:41.979Z,5.15
2023-03-16T23:59:41.197Z,5.31
